createdAt,value
2023-02-13T00:00:50.638Z,4.48
2023-02-13T00:03:18.125Z,4.46
2023-02-13T00:05:45.663Z,4.48
2023-02-13T00:08:13.228Z,4.47
2023-02-13T00:10:40.829Z,4.47
2023-02-13T00:13:08.507Z,4.49
2023-02-13T00:15:36.006Z,4.51
2023-02-13T00:18:03.901Z,4.51
2023-02-13T00:20:31.416Z,4.49
2023-02-13T00:23:00.070Z,4.53
2023-02-13T00:25:27.750Z,4.55
2023-02-13T00:27:55.295Z,4.53
2023-02-13T00:30:23.311Z,4.54
2023-02-13T00:32:52.146Z,4.55
2023-02-13T00:35:19.631Z,4.58
2023-02-13T00:37:47.136Z,4.59
2023-02-13T00:40:15.391Z,4.58
2023-02-13T00:42:42.877Z,4.55
2023-02-13T00:45:10.321Z,4.53
2023-02-13T00:47:37.737Z,4.54
2023-02-13T00:50:05.879Z,4.52
2023-02-13T00:52:33.377Z,4.53
2023-02-13T00:55:00.920Z,4.50
2023-02-13T00:57:29.371Z,4.48
2023-02-13T00:59:56.857Z,4.49
2023-02-13T01:02:24.768Z,4.51
2023-02-13T01:04:52.424Z,4.52
2023-02-13T01:07:19.901Z,4.53
2023-02-13T01:09:47.385Z,4.57
2023-02-13T01:12:14.861Z,4.57
2023-02-13T01:14:44.191Z,4.55
2023-02-13T01:17:11.566Z,4.57
2023-02-13T01:19:41.305Z,4.57
2023-02-13T01:22:09.657Z,4.53
2023-02-13T01:24:37.094Z,4.59
2023-02-13T01:27:04.682Z,4.55
2023-02-13T01:29:32.454Z,4.58
2023-02-13T01:32:03.963Z,4.60
2023-02-13T01:34:34.847Z,4.61
2023-02-13T01:37:02.599Z,4.61
2023-02-13T01:39:30.114Z,4.65
2023-02-13T01:41:57.631Z,4.64
2023-02-13T01:44:51.835Z,4.58
2023-02-13T01:47:41.373Z,4.57
2023-02-13T01:50:17.771Z,4.60
2023-02-13T01:52:51.941Z,4.58
2023-02-13T01:55:20.080Z,4.58
2023-02-13T01:57:56.968Z,4.58
2023-02-13T02:00:25.149Z,4.60
2023-02-13T02:02:58.326Z,4.57
2023-02-13T02:05:30.900Z,4.56
2023-02-13T02:08:00.710Z,4.56
2023-02-13T02:10:29.332Z,4.60
2023-02-13T02:13:16.914Z,4.54
2023-02-13T02:15:45.042Z,4.55
2023-02-13T02:18:20.524Z,4.51
2023-02-13T02:21:29.403Z,4.54
2023-02-13T02:24:26.849Z,4.55
2023-02-13T02:27:26.446Z,4.53
2023-02-13T02:30:18.282Z,4.52
2023-02-13T02:33:06.916Z,4.52
2023-02-13T02:36:01.547Z,4.52
2023-02-13T02:38:55.836Z,4.49
2023-02-13T02:41:47.669Z,4.53
2023-02-13T02:44:22.276Z,4.56
2023-02-13T02:47:17.403Z,4.56
2023-02-13T02:49:59.218Z,4.53
2023-02-13T02:52:39.656Z,4.56
2023-02-13T02:55:20.576Z,4.55
2023-02-13T02:58:27.952Z,4.56
2023-02-13T03:01:23.138Z,4.58
2023-02-13T03:04:09.679Z,4.51
2023-02-13T03:06:49.315Z,4.51
2023-02-13T03:09:43.670Z,4.51
2023-02-13T03:12:31.360Z,4.50
2023-02-13T03:14:58.832Z,4.48
2023-02-13T03:17:44.920Z,4.45
2023-02-13T03:20:55.465Z,4.48
2023-02-13T03:23:31.868Z,4.48
2023-02-13T03:26:33.457Z,4.46
2023-02-13T03:29:32.740Z,4.44
2023-02-13T03:32:18.052Z,4.47
2023-02-13T03:35:12.511Z,4.49
2023-02-13T03:37:54.783Z,4.44
2023-02-13T03:40:36.546Z,4.45
2023-02-13T03:43:17.543Z,4.43
2023-02-13T03:45:54.819Z,4.43
2023-02-13T03:48:52.617Z,4.45
2023-02-13T03:51:27.614Z,4.46
2023-02-13T03:54:03.811Z,4.46
2023-02-13T03:56:52.888Z,4.43
2023-02-13T03:59:29.187Z,4.45
2023-02-13T04:01:59.374Z,4.45
2023-02-13T04:04:54.672Z,4.42
2023-02-13T04:07:30.797Z,4.44
2023-02-13T04:10:18.484Z,4.47
2023-02-13T04:13:02.420Z,4.43
2023-02-13T04:15:37.549Z,4.45
2023-02-13T04:18:15.797Z,4.37
2023-02-13T04:20:43.983Z,4.40
2023-02-13T04:23:12.617Z,4.42
2023-02-13T04:25:44.382Z,4.38
2023-02-13T04:28:12.088Z,4.40
2023-02-13T04:30:39.728Z,4.41
2023-02-13T04:33:07.290Z,4.42
2023-02-13T04:35:35.615Z,4.40
2023-02-13T04:38:03.158Z,4.36
2023-02-13T04:40:30.623Z,4.41
2023-02-13T04:42:58.383Z,4.41
2023-02-13T04:45:25.997Z,4.38
2023-02-13T04:47:55.361Z,4.41
2023-02-13T04:50:23.545Z,4.41
2023-02-13T04:52:55.665Z,4.43
2023-02-13T04:55:24.541Z,4.46
2023-02-13T04:57:54.053Z,4.43
2023-02-13T05:00:23.053Z,4.43
2023-02-13T05:02:50.580Z,4.43
2023-02-13T05:05:18.655Z,4.42
2023-02-13T05:07:46.203Z,4.41
2023-02-13T05:10:13.811Z,4.42
2023-02-13T05:12:41.222Z,4.43
2023-02-13T05:15:09.668Z,4.44
2023-02-13T05:17:37.134Z,4.41
2023-02-13T05:20:05.097Z,4.42
2023-02-13T05:22:53.709Z,4.41
2023-02-13T05:25:21.292Z,4.39
2023-02-13T05:27:48.715Z,4.39
2023-02-13T05:30:16.212Z,4.37
2023-02-13T05:32:43.757Z,4.36
2023-02-13T05:35:11.591Z,4.38
2023-02-13T05:37:39.093Z,4.34
2023-02-13T05:40:07.306Z,4.39
2023-02-13T05:42:34.922Z,4.38
2023-02-13T05:49:16.285Z,4.34
2023-02-13T05:51:44.038Z,4.33
2023-02-13T05:54:11.924Z,4.32
2023-02-13T05:56:39.444Z,4.33
2023-02-13T05:59:06.940Z,4.29
2023-02-13T06:01:34.703Z,4.31
2023-02-13T06:04:03.853Z,4.32
2023-02-13T06:06:31.610Z,4.30
2023-02-13T06:08:59.071Z,4.29
2023-02-13T06:11:26.552Z,4.27
2023-02-13T06:13:54.039Z,4.28
2023-02-13T06:16:22.717Z,4.26
2023-02-13T06:18:50.247Z,4.27
2023-02-13T06:21:17.810Z,4.29
2023-02-13T06:23:45.288Z,4.26
2023-02-13T06:26:12.887Z,4.28
2023-02-13T06:28:40.540Z,4.26
2023-02-13T06:31:08.240Z,4.27
2023-02-13T06:33:35.814Z,4.29
2023-02-13T06:36:04.691Z,4.25
2023-02-13T06:38:32.390Z,4.26
2023-02-13T06:41:04.635Z,4.27
2023-02-13T06:43:32.085Z,4.31
2023-02-13T06:45:59.915Z,4.33
2023-02-13T06:48:27.424Z,4.34
2023-02-13T06:50:55.084Z,4.30
2023-02-13T06:53:25.078Z,4.31
2023-02-13T06:55:53.934Z,4.32
2023-02-13T06:58:22.249Z,4.31
2023-02-13T07:00:51.283Z,4.34
2023-02-13T07:03:19.116Z,4.35
2023-02-13T07:05:46.733Z,4.31
2023-02-13T07:08:14.190Z,4.38
2023-02-13T07:10:42.263Z,4.39
2023-02-13T07:13:10.680Z,4.40
2023-02-13T07:15:38.725Z,4.41
2023-02-13T07:18:07.613Z,4.44
2023-02-13T07:20:35.437Z,4.42
2023-02-13T07:23:04.946Z,4.45
2023-02-13T07:25:32.930Z,4.49
2023-02-13T07:28:05.534Z,4.51
2023-02-13T07:30:34.690Z,4.50
2023-02-13T07:33:03.745Z,4.53
2023-02-13T07:35:31.889Z,4.53
2023-02-13T07:38:00.975Z,4.56
2023-02-13T07:40:28.779Z,4.56
2023-02-13T07:42:56.763Z,4.60
2023-02-13T07:45:24.310Z,4.59
2023-02-13T07:47:51.742Z,4.66
2023-02-13T07:50:19.374Z,4.65
2023-02-13T07:52:54.034Z,4.72
2023-02-13T07:55:21.927Z,4.74
2023-02-13T07:57:50.253Z,4.75
2023-02-13T08:00:18.888Z,4.76
2023-02-13T08:02:47.505Z,4.86
2023-02-13T08:05:15.330Z,4.85
2023-02-13T08:07:42.842Z,4.86
2023-02-13T08:10:32.154Z,4.87
2023-02-13T08:13:00.292Z,4.91
2023-02-13T08:15:27.855Z,4.96
2023-02-13T08:17:55.361Z,4.96
2023-02-13T08:20:24.177Z,5.01
2023-02-13T08:22:51.874Z,4.97
2023-02-13T08:25:19.895Z,4.92
2023-02-13T08:27:47.629Z,4.83
2023-02-13T08:30:15.528Z,4.90
2023-02-13T08:32:53.822Z,4.92
2023-02-13T08:35:22.999Z,4.89
2023-02-13T08:37:50.468Z,4.90
2023-02-13T08:40:18.058Z,4.97
2023-02-13T08:42:45.517Z,5.04
2023-02-13T08:45:13.239Z,5.09
2023-02-13T08:47:40.701Z,5.16
2023-02-13T08:50:08.850Z,5.23
2023-02-13T08:52:36.342Z,5.27
2023-02-13T08:55:03.977Z,5.36
2023-02-13T08:57:31.708Z,5.36
2023-02-13T08:59:59.221Z,5.31
2023-02-13T09:02:26.702Z,5.34
2023-02-13T09:04:54.317Z,5.30
2023-02-13T09:07:21.717Z,5.22
2023-02-13T09:09:49.404Z,5.33
2023-02-13T09:12:16.837Z,5.45
2023-02-13T09:14:44.268Z,5.51
2023-02-13T09:17:11.736Z,5.46
2023-02-13T09:19:39.257Z,5.49
2023-02-13T09:22:06.695Z,5.43
2023-02-13T09:24:34.203Z,5.29
2023-02-13T09:27:01.635Z,5.22
2023-02-13T09:29:31.808Z,5.18
2023-02-13T09:31:59.581Z,5.07
2023-02-13T09:34:27.154Z,5.07
2023-02-13T09:36:54.922Z,5.04
2023-02-13T09:39:22.519Z,5.06
2023-02-13T09:41:53.168Z,5.03
2023-02-13T09:44:34.537Z,5.01
2023-02-13T09:47:13.386Z,4.92
2023-02-13T09:49:47.235Z,4.97
2023-02-13T09:52:15.152Z,5.05
2023-02-13T09:54:42.689Z,5.10
2023-02-13T09:57:26.696Z,5.03
2023-02-13T10:00:13.955Z,5.13
2023-02-13T10:03:07.629Z,5.15
2023-02-13T10:05:47.896Z,5.04
2023-02-13T10:09:08.299Z,5.09
2023-02-13T10:11:58.470Z,5.17
2023-02-13T10:14:28.633Z,5.32
2023-02-13T10:17:02.511Z,5.38
2023-02-13T10:19:29.856Z,5.39
2023-02-13T10:22:00.736Z,5.41
2023-02-13T10:24:37.604Z,5.52
2023-02-13T10:27:18.804Z,5.52
2023-02-13T10:30:05.252Z,5.48
2023-02-13T10:32:50.574Z,5.64
2023-02-13T10:35:45.852Z,5.70
2023-02-13T10:38:17.090Z,5.70
2023-02-13T10:41:03.585Z,5.77
2023-02-13T10:44:04.274Z,5.74
2023-02-13T10:46:51.119Z,5.67
2023-02-13T10:49:18.628Z,5.65
2023-02-13T10:51:56.145Z,5.72
2023-02-13T10:54:52.684Z,5.79
2023-02-13T10:57:38.234Z,5.86
2023-02-13T11:00:25.031Z,5.83
2023-02-13T11:02:56.232Z,5.93
2023-02-13T11:05:30.206Z,5.92
2023-02-13T11:08:02.224Z,5.89
2023-02-13T11:10:29.779Z,5.87
2023-02-13T11:12:57.286Z,5.84
2023-02-13T11:15:32.925Z,5.89
2023-02-13T11:18:15.209Z,5.97
2023-02-13T11:20:46.918Z,6.00
2023-02-13T11:23:29.598Z,6.06
2023-02-13T11:26:01.651Z,6.11
2023-02-13T11:28:36.731Z,6.09
2023-02-13T11:31:13.648Z,6.10
2023-02-13T11:33:42.197Z,6.25
2023-02-13T11:36:16.827Z,6.17
2023-02-13T11:38:44.516Z,6.18
2023-02-13T11:41:14.908Z,6.33
2023-02-13T11:44:01.131Z,6.38
2023-02-13T11:46:31.377Z,6.44
2023-02-13T11:49:04.980Z,6.53
2023-02-13T11:51:58.777Z,6.60
2023-02-13T11:54:33.925Z,6.55
2023-02-13T11:57:18.988Z,6.62
2023-02-13T11:59:49.071Z,6.49
2023-02-13T12:02:16.586Z,6.47
2023-02-13T12:04:44.792Z,6.47
2023-02-13T12:07:17.852Z,6.51
2023-02-13T12:09:48.981Z,6.61
2023-02-13T12:12:33.105Z,6.66
2023-02-13T12:15:02.380Z,6.65
2023-02-13T12:17:32.520Z,6.76
2023-02-13T12:20:00.801Z,6.88
2023-02-13T12:22:48.866Z,7.01
2023-02-13T12:25:41.026Z,7.02
2023-02-13T12:28:08.518Z,7.07
2023-02-13T12:30:54.420Z,7.08
2023-02-13T12:33:39.880Z,7.12
2023-02-13T12:36:07.590Z,7.00
2023-02-13T12:38:59.125Z,7.00
2023-02-13T12:41:50.164Z,7.04
2023-02-13T12:44:36.272Z,6.97
2023-02-13T12:47:51.230Z,7.00
2023-02-13T12:50:18.551Z,7.03
2023-02-13T12:52:51.499Z,7.08
2023-02-13T12:55:55.527Z,7.23
2023-02-13T12:58:37.241Z,7.32
2023-02-13T13:01:20.264Z,7.35
2023-02-13T13:04:00.141Z,7.34
2023-02-13T13:06:30.713Z,7.25
2023-02-13T13:09:34.670Z,7.24
2023-02-13T13:12:08.133Z,7.22
2023-02-13T13:14:44.602Z,7.14
2023-02-13T13:17:51.673Z,7.16
2023-02-13T13:20:31.513Z,7.16
2023-02-13T13:23:37.159Z,7.18
2023-02-13T13:26:21.498Z,7.20
2023-02-13T13:28:58.497Z,7.25
2023-02-13T13:31:27.272Z,7.30
2023-02-13T13:34:01.894Z,7.31
2023-02-13T13:36:51.257Z,7.40
2023-02-13T13:39:44.605Z,7.32
2023-02-13T13:42:19.710Z,7.31
2023-02-13T13:44:50.107Z,7.29
2023-02-13T13:47:49.235Z,7.28
2023-02-13T13:50:23.422Z,7.23
2023-02-13T13:53:14.839Z,7.28
2023-02-13T13:55:48.178Z,7.25
2023-02-13T13:58:38.911Z,7.01
2023-02-13T14:01:16.914Z,6.92
2023-02-13T14:03:49.523Z,6.92
2023-02-13T14:06:28.312Z,6.94
2023-02-13T14:08:57.717Z,6.89
2023-02-13T14:11:39.874Z,6.90
2023-02-13T14:14:29.208Z,6.89
2023-02-13T14:17:04.664Z,6.84
2023-02-13T14:19:40.604Z,6.81
2023-02-13T14:22:20.137Z,6.77
2023-02-13T14:24:55.018Z,6.62
2023-02-13T14:27:26.501Z,6.61
2023-02-13T14:29:56.057Z,6.58
2023-02-13T14:32:34.566Z,6.55
2023-02-13T14:35:26.802Z,6.51
2023-02-13T14:37:55.465Z,6.43
2023-02-13T14:40:22.815Z,6.39
2023-02-13T14:43:00.616Z,6.35
2023-02-13T14:45:47.976Z,6.25
2023-02-13T14:48:16.249Z,6.20
2023-02-13T14:50:57.173Z,6.14
2023-02-13T14:53:31.410Z,6.13
2023-02-13T14:56:06.935Z,6.13
2023-02-13T14:58:41.215Z,6.01
2023-02-13T15:01:22.129Z,5.96
2023-02-13T15:03:57.558Z,5.81
2023-02-13T15:06:36.010Z,5.84
2023-02-13T15:09:14.445Z,5.81
2023-02-13T15:11:43.827Z,5.73
2023-02-13T15:14:23.241Z,5.65
2023-02-13T15:16:54.936Z,5.60
2023-02-13T15:19:24.216Z,5.54
2023-02-13T15:21:55.379Z,5.42
2023-02-13T15:24:24.217Z,5.36
2023-02-13T15:27:03.523Z,5.23
2023-02-13T15:29:44.295Z,5.17
2023-02-13T15:32:39.301Z,5.11
2023-02-13T15:35:31.986Z,5.03
2023-02-13T15:38:00.213Z,4.94
2023-02-13T15:40:31.319Z,4.85
2023-02-13T15:43:00.518Z,4.72
2023-02-13T15:45:29.938Z,4.66
2023-02-13T15:47:58.205Z,4.65
2023-02-13T15:50:35.576Z,4.63
2023-02-13T15:53:10.109Z,4.50
2023-02-13T15:55:38.562Z,4.50
2023-02-13T15:58:06.887Z,4.48
2023-02-13T16:00:39.413Z,4.48
2023-02-13T16:03:14.234Z,4.50
2023-02-13T16:05:41.966Z,4.48
2023-02-13T16:08:30.407Z,4.49
2023-02-13T16:11:25.358Z,4.46
2023-02-13T16:14:01.781Z,4.43
2023-02-13T16:16:33.165Z,4.34
2023-02-13T16:19:00.854Z,4.33
2023-02-13T16:21:31.554Z,4.31
2023-02-13T16:24:04.057Z,4.31
2023-02-13T16:26:31.723Z,4.21
2023-02-13T16:28:59.178Z,4.21
2023-02-13T16:31:26.822Z,4.14
2023-02-13T16:33:54.486Z,4.13
2023-02-13T16:36:30.157Z,4.08
2023-02-13T16:38:57.802Z,4.07
2023-02-13T16:41:34.331Z,4.05
2023-02-13T16:44:03.377Z,4.06
2023-02-13T16:46:41.949Z,4.03
2023-02-13T16:49:09.526Z,4.04
2023-02-13T16:51:46.733Z,4.06
2023-02-13T16:54:40.061Z,4.04
2023-02-13T16:57:20.920Z,4.03
2023-02-13T16:59:48.411Z,4.04
2023-02-13T17:02:27.680Z,4.00
2023-02-13T17:05:13.594Z,4.01
2023-02-13T17:07:53.300Z,4.01
2023-02-13T17:10:31.315Z,3.95
2023-02-13T17:13:02.524Z,3.93
2023-02-13T17:15:32.182Z,3.87
2023-02-13T17:18:00.157Z,3.85
2023-02-13T17:20:30.963Z,3.91
2023-02-13T17:23:04.297Z,3.89
2023-02-13T17:25:34.223Z,3.88
2023-02-13T17:28:23.081Z,3.87
2023-02-13T17:30:53.667Z,3.91
2023-02-13T17:33:29.377Z,3.89
2023-02-13T17:35:57.071Z,3.89
2023-02-13T17:38:24.740Z,3.89
2023-02-13T17:40:52.281Z,3.86
2023-02-13T17:43:20.796Z,3.87
2023-02-13T17:45:49.847Z,3.89
2023-02-13T17:48:17.983Z,3.90
2023-02-13T17:50:45.664Z,3.89
2023-02-13T17:53:27.907Z,3.87
2023-02-13T17:55:55.643Z,3.90
2023-02-13T17:58:23.283Z,3.87
2023-02-13T18:00:51.290Z,3.87
2023-02-13T18:03:19.016Z,3.86
2023-02-13T18:05:50.247Z,3.82
2023-02-13T18:08:17.887Z,3.84
2023-02-13T18:10:45.359Z,3.80
2023-02-13T18:13:13.099Z,3.79
2023-02-13T18:15:43.468Z,3.80
2023-02-13T18:18:12.688Z,3.79
2023-02-13T18:20:40.187Z,3.79
2023-02-13T18:23:08.277Z,3.77
2023-02-13T18:25:36.290Z,3.76
2023-02-13T18:28:03.817Z,3.78
2023-02-13T18:30:31.527Z,3.65
2023-02-13T18:32:59.408Z,3.72
2023-02-13T18:35:27.268Z,3.73
2023-02-13T18:37:54.836Z,3.73
2023-02-13T18:40:22.629Z,3.77
2023-02-13T18:42:51.313Z,3.72
2023-02-13T18:45:18.901Z,3.76
2023-02-13T18:47:46.450Z,3.76
2023-02-13T18:50:14.118Z,3.80
2023-02-13T18:52:41.634Z,3.74
2023-02-13T18:55:09.528Z,3.76
2023-02-13T18:57:37.104Z,3.75
2023-02-13T19:00:05.549Z,3.71
2023-02-13T19:02:33.562Z,3.75
2023-02-13T19:05:01.554Z,3.76
2023-02-13T19:07:29.128Z,3.77
2023-02-13T19:09:56.642Z,3.76
2023-02-13T19:12:24.235Z,3.70
2023-02-13T19:14:51.683Z,3.65
2023-02-13T19:17:19.151Z,3.62
2023-02-13T19:19:48.874Z,3.72
2023-02-13T19:22:16.751Z,3.66
2023-02-13T19:24:44.425Z,3.68
2023-02-13T19:27:11.959Z,3.70
2023-02-13T19:29:39.368Z,3.71
2023-02-13T19:32:06.837Z,3.71
2023-02-13T19:34:34.838Z,3.65
2023-02-13T19:37:02.279Z,3.71
2023-02-13T19:39:29.759Z,3.73
2023-02-13T19:41:57.404Z,3.71
2023-02-13T19:44:24.952Z,3.72
2023-02-13T19:46:52.587Z,3.74
2023-02-13T19:49:22.457Z,3.72
2023-02-13T19:51:50.002Z,3.75
2023-02-13T19:54:17.504Z,3.73
2023-02-13T19:56:45.095Z,3.75
2023-02-13T19:59:13.582Z,3.74
2023-02-13T20:01:42.974Z,3.76
2023-02-13T20:04:12.007Z,3.77
2023-02-13T20:06:40.138Z,3.76
2023-02-13T20:09:11.448Z,3.74
2023-02-13T20:11:42.909Z,3.73
2023-02-13T20:14:15.040Z,3.71
2023-02-13T20:16:45.752Z,3.73
2023-02-13T20:19:14.203Z,3.74
2023-02-13T20:21:42.485Z,3.73
2023-02-13T20:24:11.866Z,3.71
2023-02-13T20:26:40.421Z,3.69
2023-02-13T20:29:08.999Z,3.72
2023-02-13T20:31:36.785Z,3.72
2023-02-13T20:34:06.200Z,3.72
2023-02-13T20:36:33.885Z,3.70
2023-02-13T20:39:04.581Z,3.67
2023-02-13T20:41:34.045Z,3.68
2023-02-13T20:44:04.855Z,3.67
2023-02-13T20:46:34.447Z,3.70
2023-02-13T20:49:02.017Z,3.69
2023-02-13T20:51:29.852Z,3.68
2023-02-13T20:53:57.877Z,3.70
2023-02-13T20:56:26.537Z,3.70
2023-02-13T20:58:57.721Z,3.68
2023-02-13T21:01:28.700Z,3.68
2023-02-13T21:03:57.220Z,3.68
2023-02-13T21:06:27.514Z,3.72
2023-02-13T21:08:55.052Z,3.75
2023-02-13T21:11:23.196Z,3.77
2023-02-13T21:13:50.988Z,3.77
2023-02-13T21:16:24.801Z,3.77
2023-02-13T21:18:55.669Z,3.73
2023-02-13T21:21:26.349Z,3.76
2023-02-13T21:23:55.217Z,3.78
2023-02-13T21:26:23.554Z,3.76
2023-02-13T21:28:51.897Z,3.75
2023-02-13T21:31:28.012Z,3.72
2023-02-13T21:33:59.894Z,3.69
2023-02-13T21:36:27.413Z,3.72
2023-02-13T21:38:55.218Z,3.74
2023-02-13T21:41:24.860Z,3.72
2023-02-13T21:43:52.328Z,3.75
2023-02-13T21:46:28.965Z,3.73
2023-02-13T21:48:59.069Z,3.73
2023-02-13T21:51:29.357Z,3.70
2023-02-13T21:53:57.365Z,3.69
2023-02-13T21:56:28.032Z,3.70
2023-02-13T21:58:56.748Z,3.71
2023-02-13T22:01:35.944Z,3.67
2023-02-13T22:04:08.742Z,3.67
2023-02-13T22:06:38.537Z,3.67
2023-02-13T22:09:11.827Z,3.67
2023-02-13T22:11:40.759Z,3.70
2023-02-13T22:14:12.161Z,3.70
2023-02-13T22:16:40.440Z,3.71
2023-02-13T22:19:08.180Z,3.72
2023-02-13T22:21:36.683Z,3.68
2023-02-13T22:24:04.481Z,3.72
2023-02-13T22:26:35.264Z,3.72
2023-02-13T22:29:08.451Z,3.70
2023-02-13T22:31:36.760Z,3.69
2023-02-13T22:34:05.826Z,3.68
2023-02-13T22:36:35.132Z,3.65
2023-02-13T22:39:02.591Z,3.62
2023-02-13T22:41:30.425Z,3.63
2023-02-13T22:43:58.118Z,3.67
2023-02-13T22:46:28.373Z,3.63
2023-02-13T22:48:56.606Z,3.62
2023-02-13T22:51:35.373Z,3.63
2023-02-13T22:54:03.573Z,3.64
2023-02-13T22:56:31.459Z,3.66
2023-02-13T22:58:59.573Z,3.68
2023-02-13T23:01:28.828Z,3.65
2023-02-13T23:03:57.148Z,3.63
2023-02-13T23:06:25.219Z,3.65
2023-02-13T23:08:53.894Z,3.68
2023-02-13T23:11:45.559Z,3.70
2023-02-13T23:14:13.802Z,3.70
2023-02-13T23:17:01.177Z,3.70
2023-02-13T23:19:30.052Z,3.72
2023-02-13T23:21:58.358Z,3.74
2023-02-13T23:24:25.951Z,3.75
2023-02-13T23:26:53.409Z,3.76
2023-02-13T23:29:20.967Z,3.79
2023-02-13T23:31:48.611Z,3.80
2023-02-13T23:34:16.289Z,3.77
2023-02-13T23:36:43.717Z,3.80
2023-02-13T23:39:11.259Z,3.79
2023-02-13T23:41:38.817Z,3.77
2023-02-13T23:44:06.310Z,3.76
2023-02-13T23:46:33.832Z,3.79
2023-02-13T23:49:01.448Z,3.78
2023-02-13T23:51:28.914Z,3.77
2023-02-13T23:53:57.532Z,3.73
2023-02-13T23:56:26.231Z,3.69
2023-02-13T23:58:55.826Z,3.69
